Capital City Airport
KLAN : rendu visible

Aérodrome :











RETROUVEZ-NOUS SUR...

 
LOGIN :

S'inscrire | Disclaimer

   EN    FR    IT 

 









Légende :    VFR   VFR Marginal   IFR   IFR Intensif   IFR Très Intensif
Visi : 
Plafond : 
>= 8 km
>= 3000ft
5 à 8 km
1000 à 3000 ft
1500m à 5 km
500 à 1000 ft
800 à 1500m
200 à 500 ft
< 800m
< 200 ft
Symboles :   Orages  Brouillard  Fortes neiges  Fortes précipitations  Vent > 20 kt






- Altitude de l'aérodrome : 861 ft
- Code IATA : LAN


KLAN - Capital City

DERNIER METAR :
  • 300253Z AUTO 27007KT 10SM CLR 16/09 A3001 RMK AO2 SLP161 T01560094 51017

METARs EXPIRÉS :
  • 300153Z 27006KT 10SM CLR 17/10 A2999 RMK AO2 SLP155 T01670100
  • 300053Z 27008KT 10SM SCT042 18/11 A2997 RMK AO2 SLP149 T01780111

TAF KLAN
Valide du 30 à 00h jusqu'au 31 à 00h UTC


292348Z 3000/3024 28012KT P6SM SCT040
FM300200 30008KT P6SM SCT060
FM300400 31006KT P6SM BKN060
FM301500 31011KT P6SM BKN035
FIR KZOB / Amérique du Nord



MET'MAP, la Météo Aéronautique d'un coup d'oeil ! - Copyright ORBIFLY Décembre 2007 - Disclaimer

ORBIFLY MET'MAP TEAM :

Programmation & Développement : Alexandra Zaïnal
Sur une idée originale de : Baudouin d'Aumeries
Assistance à la programmation : Marc-Olivier Méhu
Soutien technique & logistique : Manuel Goepfert

Contact : metmap@orbifly.com




SOURCES & CREDITS :

   NOAA       Earth
Advisory